Aérodrome :
LOGIN :

S'inscrire | Disclaimer

   EN    FR    IT 

 










Légende :    VFR   VFR Marginal   IFR   IFR Intensif   IFR Très Intensif
Visi : 
Plafond : 
>= 8 km
>= 3000ft
5 à 8 km
1000 à 3000 ft
1500m à 5 km
500 à 1000 ft
800 à 1500m
200 à 500 ft
< 800m
< 200 ft
Symboles :   Orages  Brouillard  Fortes neiges  Fortes précipitations  Vent > 20 kt
SIGMETs :   Divers  Orages  Givrage  Turbulence  Onde Orograph.  Cendres Volcan.






- Altitude de l'aérodrome : 288 ft
- Code IATA : BZZ


EGVN - RAF Brize Norton

DERNIER METAR :
  • 170650Z 24001KT 5000 HZ FEW032 BKN050 04/03 Q1009 TEMPO 3000 BR

METARs EXPIRÉS :
  • 170620Z 27002KT 5000 -RA FEW032 BKN050 04/03 Q1009 TEMPO 3000 BR RMK WHT TEMPO YLO1
  • 170550Z 28001KT 5000 -RA SCT032 BKN046 04/03 Q1009 NOSIG RMK WHT WHT
  • 170520Z 25002KT 5000 -RA SCT032 BKN046 04/03 Q1009 NOSIG RMK WHT WHT
  • 170450Z 26001KT 5000 -RA SCT032 BKN046 04/03 Q1009 NOSIG RMK WHT WHT

TAF TAF EGVN
Valide du 17 à 06h jusqu'au 18 à 06h UTC


170434Z 1706/1806 VRB05KT 9999 SCT040
PROB40
TEMPO 1706/1713 3000 -RADZ SCT014
BECMG 1713/1716 BKN010
PROB30
TEMPO 1716/1802 5000 -RA
BECMG 1803/1806 SCT025



MET'MAP, la Météo Aéronautique d'un coup d'oeil ! - Copyright ORBIFLY Décembre 2007 - Disclaimer

ORBIFLY MET'MAP TEAM :

Programmation & Développement : Alexandra Zaïnal
Conception & Développement : Baudouin d'Aumeries
Co-Programmation & Développement : Marc-Olivier Méhu
Soutien technique & logistique : Manuel Goepfert

Contact : metmap@orbifly.com




SOURCES & CREDITS :

   NOAA